Hlavní strana
METAR-TAF:

METAR-TAF

Letiště :

Mendoza, Argentina

zeměpisná šířka: 32-50S, zeměpisná délka: 068-47W, výška: 705 m

Aktuální stav počasí

Zpráva byla vytvořena před 52 minutami, v 22:00 UTC
Jihovýchodní vítr 6 kt
Teplota 31°C
Vlhkost vzduchu 22%
Tlak 1010 hPa
Viditelnost 10 km a více
Žádná oblačnost pod 1500 m, nevyskytují se cumulonimby.

METAR: SAME 152200Z 14006KT CAVOK 31/07 Q1010

Čas: 19:52 (22:52 UTC)

Předpověď počasí

Zpráva byla vytvořena před 5 hodinami a 52 minutami, v 17:00 UTC
Předpověď platná od 15 v 18 UTC do 16 v 18 UTC
Jihovýchodní vítr 10 kt
Viditelnost 10 km a více
Skoro jasno ve výšce 4000 ft

TAF: SAME 151700Z 1518/1618 14010KT 9999 FEW040 TX33/1520Z TN17/1610Z

Stav a předpovědi počasí z více než 4 000 letišť (zprávy METAR a TAF).

Červené a žluté tečky na mapě představují dostupné meteorologické stanice.

Když kurzor umístíte na tečku, zobrazí se název stanice.

Pak kliknutím zobrazíte stav a předpověď počasí.

Chcete-li změnit mapu, kliknutím na zelené tlačítko se znaménkem +mapu přiblížíte, kliknutím na zelené tlačítko se znaménkem – mapu oddálíte a kliknutím na zelené šipky přejdete na sousední mapy.


METAR-TAF: